createdAt,value
2022-12-26T00:02:30.494Z,23.50
2022-12-26T00:07:36.464Z,24.20
2022-12-26T00:12:42.252Z,23.30
2022-12-26T00:17:48.105Z,22.30
2022-12-26T00:22:54.959Z,23.90
2022-12-26T00:28:00.803Z,21.70
2022-12-26T00:33:07.000Z,23.00
2022-12-26T00:38:12.956Z,23.60
2022-12-26T00:43:18.846Z,23.00
2022-12-26T00:48:24.646Z,21.30
2022-12-26T00:53:32.420Z,23.10
2022-12-26T00:58:42.147Z,24.10
2022-12-26T01:03:50.585Z,23.60
2022-12-26T01:08:56.700Z,23.80
2022-12-26T01:14:02.324Z,23.90
2022-12-26T01:19:08.578Z,22.70
2022-12-26T01:24:14.416Z,24.00
2022-12-26T01:29:20.482Z,24.00
2022-12-26T01:34:26.330Z,25.50
2022-12-26T01:39:32.444Z,23.60
2022-12-26T01:45:05.094Z,26.00
2022-12-26T01:50:26.044Z,27.20
2022-12-26T01:55:33.799Z,25.90
2022-12-26T02:00:40.242Z,28.10
2022-12-26T02:05:46.374Z,28.50
2022-12-26T02:10:57.609Z,28.80
2022-12-26T02:16:04.415Z,29.30
2022-12-26T02:21:38.448Z,29.50
2022-12-26T02:27:28.088Z,28.00
2022-12-26T02:33:03.919Z,29.30
2022-12-26T02:38:23.345Z,26.90
2022-12-26T02:43:37.708Z,26.40
2022-12-26T02:48:55.128Z,27.40
2022-12-26T02:54:29.577Z,27.50
2022-12-26T03:00:05.461Z,25.50
2022-12-26T03:05:37.561Z,25.90
2022-12-26T03:11:02.627Z,24.80
2022-12-26T03:16:31.719Z,24.20
2022-12-26T03:21:42.778Z,24.90
2022-12-26T03:26:52.988Z,24.00
2022-12-26T03:31:59.695Z,22.20
2022-12-26T03:37:26.307Z,24.00
2022-12-26T03:43:19.400Z,23.90
2022-12-26T03:48:51.370Z,22.10
2022-12-26T03:54:24.625Z,21.30
2022-12-26T03:59:58.434Z,22.60
2022-12-26T04:05:26.760Z,22.00
2022-12-26T04:10:55.952Z,20.30
2022-12-26T04:16:23.722Z,21.00
2022-12-26T04:21:55.861Z,21.90
2022-12-26T04:27:26.555Z,21.10
2022-12-26T04:32:57.067Z,21.10
2022-12-26T04:38:24.195Z,23.00
2022-12-26T04:43:51.521Z,19.90
2022-12-26T04:49:17.492Z,19.90
2022-12-26T04:54:23.452Z,20.50
2022-12-26T04:59:29.149Z,21.50
2022-12-26T05:04:54.284Z,21.50
2022-12-26T05:10:00.226Z,19.00
2022-12-26T05:15:07.295Z,20.40
2022-12-26T05:20:33.339Z,18.00
2022-12-26T05:26:01.061Z,17.30
2022-12-26T05:31:08.028Z,17.40
2022-12-26T05:36:15.029Z,18.50
2022-12-26T05:41:20.786Z,21.50
2022-12-26T05:46:26.764Z,18.90
2022-12-26T05:51:32.857Z,17.40
2022-12-26T05:56:40.902Z,15.70
2022-12-26T06:01:49.055Z,15.70
2022-12-26T06:06:56.748Z,14.30
2022-12-26T06:12:02.687Z,18.70
2022-12-26T06:17:08.425Z,19.70
2022-12-26T06:22:14.169Z,17.60
2022-12-26T06:27:19.956Z,18.90
2022-12-26T06:32:26.037Z,13.80
2022-12-26T06:37:32.679Z,13.60
2022-12-26T06:42:38.700Z,16.10
2022-12-26T06:47:45.240Z,12.80
2022-12-26T06:52:51.076Z,12.30
2022-12-26T06:57:56.899Z,12.30
2022-12-26T07:03:02.738Z,14.10
2022-12-26T07:08:09.288Z,31.40
2022-12-26T07:13:14.955Z,12.50
2022-12-26T07:18:20.933Z,11.90
2022-12-26T07:23:27.099Z,11.70
2022-12-26T07:28:33.116Z,13.70
2022-12-26T07:33:39.079Z,16.20
2022-12-26T07:38:45.071Z,19.20
2022-12-26T07:43:51.045Z,16.20
2022-12-26T07:48:56.805Z,17.40
2022-12-26T07:54:08.903Z,35.40
2022-12-26T07:59:18.130Z,14.20
2022-12-26T08:04:23.892Z,13.10
2022-12-26T08:09:29.582Z,12.00
2022-12-26T08:14:36.626Z,16.20
2022-12-26T08:19:42.493Z,12.10
2022-12-26T08:24:48.224Z,10.00
2022-12-26T08:29:53.863Z,12.40
2022-12-26T08:34:59.620Z,15.20
2022-12-26T08:40:26.816Z,48.10
2022-12-26T08:45:42.353Z,15.30
2022-12-26T08:50:48.193Z,12.50
2022-12-26T08:55:55.057Z,17.30
2022-12-26T09:01:10.117Z,14.70
2022-12-26T09:06:17.717Z,19.20
2022-12-26T09:11:27.015Z,14.70
2022-12-26T09:16:40.030Z,16.60
2022-12-26T09:21:48.546Z,15.50
2022-12-26T09:26:54.180Z,14.40
2022-12-26T09:32:00.899Z,16.40
2022-12-26T09:37:06.792Z,15.10
2022-12-26T09:42:28.383Z,13.40
2022-12-26T09:47:37.746Z,21.80
2022-12-26T09:52:48.761Z,20.50
2022-12-26T09:57:59.388Z,16.90
2022-12-26T10:03:08.081Z,13.80
2022-12-26T10:08:30.578Z,17.90
2022-12-26T10:13:43.839Z,14.10
2022-12-26T10:18:58.962Z,13.00
2022-12-26T10:24:15.890Z,11.40
2022-12-26T10:29:25.879Z,15.20
2022-12-26T10:34:37.088Z,13.50
2022-12-26T10:39:47.902Z,15.80
2022-12-26T10:44:53.754Z,14.80
2022-12-26T10:50:00.139Z,15.60
2022-12-26T10:55:28.144Z,14.60
2022-12-26T11:00:35.820Z,13.30
2022-12-26T11:11:21.068Z,14.60
2022-12-26T11:16:29.661Z,15.90
2022-12-26T11:21:35.610Z,15.30
2022-12-26T11:26:41.745Z,16.60
2022-12-26T11:31:57.151Z,15.70
2022-12-26T11:37:05.654Z,15.90
2022-12-26T11:42:19.069Z,15.50
2022-12-26T11:47:28.926Z,17.90
2022-12-26T11:52:41.227Z,16.00
2022-12-26T11:58:02.092Z,15.70
2022-12-26T12:03:16.579Z,18.30
2022-12-26T12:08:44.061Z,15.20
2022-12-26T12:14:06.075Z,15.20
2022-12-26T12:19:36.019Z,15.60
2022-12-26T12:24:53.152Z,17.60
2022-12-26T12:30:15.503Z,16.30
2022-12-26T12:35:41.227Z,15.90
2022-12-26T12:40:57.564Z,19.40
2022-12-26T12:46:17.446Z,12.90
2022-12-26T12:51:42.275Z,10.50
2022-12-26T12:57:02.156Z,10.40
2022-12-26T13:02:20.520Z,11.20
2022-12-26T13:07:31.473Z,10.90
2022-12-26T13:12:42.077Z,10.70
2022-12-26T13:17:53.486Z,10.50
2022-12-26T13:23:37.482Z,11.80
2022-12-26T13:28:53.351Z,10.40
2022-12-26T13:33:59.655Z,9.90
2022-12-26T13:39:34.040Z,10.80
2022-12-26T13:44:40.403Z,11.00
2022-12-26T13:49:46.653Z,11.10
2022-12-26T13:55:23.270Z,11.50
2022-12-26T14:00:45.228Z,13.40
2022-12-26T14:06:07.265Z,18.90
2022-12-26T14:11:26.822Z,17.00
2022-12-26T14:16:44.015Z,16.30
2022-12-26T14:21:59.472Z,20.10
2022-12-26T14:27:25.106Z,17.50
2022-12-26T14:32:45.470Z,13.30
2022-12-26T14:38:05.170Z,13.60
2022-12-26T14:43:29.152Z,14.10
2022-12-26T14:48:57.344Z,13.50
2022-12-26T14:54:51.254Z,12.60
2022-12-26T15:00:28.799Z,19.60
2022-12-26T15:05:37.864Z,21.60
2022-12-26T15:11:26.131Z,27.40
2022-12-26T15:16:56.536Z,18.80
2022-12-26T15:22:25.321Z,18.10
2022-12-26T15:28:07.480Z,13.90
2022-12-26T15:33:23.894Z,24.40
2022-12-26T15:38:40.447Z,17.30
2022-12-26T15:43:57.733Z,19.60
2022-12-26T15:49:32.934Z,17.70
2022-12-26T15:55:04.910Z,17.90
2022-12-26T16:00:15.608Z,14.90
2022-12-26T16:05:32.590Z,15.10
2022-12-26T16:10:39.494Z,15.50
2022-12-26T16:15:49.806Z,14.60
2022-12-26T16:21:17.494Z,8.50
2022-12-26T16:26:29.008Z,8.60
2022-12-26T16:31:34.998Z,9.90
2022-12-26T16:36:42.053Z,13.70
2022-12-26T16:42:02.598Z,11.40
2022-12-26T16:47:13.507Z,11.50
2022-12-26T16:52:33.833Z,12.10
2022-12-26T16:57:44.579Z,12.10
2022-12-26T17:02:57.348Z,11.50
2022-12-26T17:08:06.009Z,13.00
2022-12-26T17:13:21.443Z,13.10
2022-12-26T17:18:41.431Z,12.50
2022-12-26T17:24:05.268Z,12.30
2022-12-26T17:29:37.265Z,12.20
2022-12-26T17:34:43.757Z,9.60
2022-12-26T17:40:02.410Z,8.50
2022-12-26T17:45:14.508Z,8.30
2022-12-26T17:50:21.402Z,8.40
2022-12-26T17:55:28.008Z,7.50
2022-12-26T18:00:33.958Z,7.10
2022-12-26T18:05:40.756Z,7.60
2022-12-26T18:10:46.516Z,8.10
2022-12-26T18:15:53.554Z,9.20
2022-12-26T18:20:59.233Z,8.60
2022-12-26T18:26:10.844Z,9.30
2022-12-26T18:31:17.672Z,10.20
2022-12-26T18:36:31.192Z,9.90
2022-12-26T18:41:37.013Z,9.00
2022-12-26T18:46:42.611Z,10.50
2022-12-26T18:51:48.332Z,10.80
2022-12-26T18:56:54.088Z,10.10
2022-12-26T19:02:00.384Z,9.90
2022-12-26T19:07:06.311Z,10.10
2022-12-26T19:12:12.316Z,10.50
2022-12-26T19:17:18.556Z,10.70
2022-12-26T19:22:24.666Z,10.70
2022-12-26T19:27:30.400Z,9.70
2022-12-26T19:32:36.269Z,10.30
2022-12-26T19:37:42.465Z,10.60
2022-12-26T19:42:48.417Z,9.40
2022-12-26T19:47:54.485Z,9.80
2022-12-26T19:53:00.343Z,10.50
2022-12-26T19:58:06.090Z,10.10
2022-12-26T20:03:12.087Z,9.00
2022-12-26T20:08:17.958Z,9.90
2022-12-26T20:13:23.737Z,9.40
2022-12-26T20:18:29.535Z,10.00
2022-12-26T20:23:35.967Z,12.40
2022-12-26T20:28:42.334Z,9.60
2022-12-26T20:33:50.067Z,16.90
2022-12-26T20:38:58.520Z,11.40
2022-12-26T20:44:04.524Z,10.60
2022-12-26T20:49:11.017Z,10.40
2022-12-26T20:54:17.441Z,10.70
2022-12-26T20:59:23.823Z,9.40
2022-12-26T21:04:29.564Z,10.50
2022-12-26T21:09:36.839Z,11.40
2022-12-26T21:14:45.409Z,9.90
2022-12-26T21:19:51.072Z,8.60
2022-12-26T21:24:56.823Z,11.60
2022-12-26T21:30:02.719Z,11.30
2022-12-26T21:35:08.935Z,9.40
2022-12-26T21:40:15.264Z,11.90
2022-12-26T21:45:21.993Z,11.30
2022-12-26T21:50:27.956Z,10.00
2022-12-26T21:55:37.820Z,10.20
2022-12-26T22:00:44.795Z,10.40
2022-12-26T22:05:50.883Z,12.30
2022-12-26T22:11:15.063Z,10.00
2022-12-26T22:16:20.809Z,9.50
2022-12-26T22:21:27.056Z,10.10
2022-12-26T22:26:32.872Z,9.10
2022-12-26T22:31:39.762Z,8.60
2022-12-26T22:36:45.770Z,8.50
2022-12-26T22:41:51.442Z,9.40
2022-12-26T22:46:57.883Z,8.20
2022-12-26T22:52:03.789Z,8.30
2022-12-26T22:57:09.644Z,9.10
2022-12-26T23:02:15.490Z,8.80
2022-12-26T23:07:23.470Z,8.40
2022-12-26T23:12:45.513Z,8.70
2022-12-26T23:18:25.262Z,7.80
2022-12-26T23:23:32.480Z,8.20
2022-12-26T23:28:56.995Z,8.90
2022-12-26T23:34:09.528Z,9.50
2022-12-26T23:39:15.460Z,8.60
2022-12-26T23:44:21.799Z,7.40
2022-12-26T23:49:27.759Z,8.60
2022-12-26T23:54:33.517Z,9.20
2022-12-26T23:59:39.408Z,9.30
